Altenstadt, Germany

10:48 PM CEST on March 29, 2017 (GMT +0200)
Schongau Forchet | | Change Station

Elev 2408 ft 47.80 °N, 10.89 °E | Updated 19 minutes ago

Partly Cloudy
Partly Cloudy
51.3 °F
Feels Like 51.3 °F
N
1.2
Wind Variable Wind from SW

Today
High -- | Low -- °F
--% Chance of Precip.
Yesterday
High -- | Low -- °F
Precip. -- in
Pressure 30.33 in
Visibility 6.2 miles
Clouds Scattered Clouds 30000 ft
Dew Point 38 °F
Humidity 65%
Rainfall Not available.
Snow Depth Not available.
7:01 AM 7:42 PM
Waxing Crescent, 4% visible
SPECI ETSL 292035Z 19001KT 9999 SCT300 07/04 Q1027 BLU+FCST CANCEL
Pressure 30.33 in
Visibility 6.2 miles
Clouds Scattered Clouds 30000 ft
Dew Point 38 °F
Humidity 65%
Rainfall Not available.
Snow Depth Not available.
7:01 AM 7:42 PM
Waxing Crescent, 4% visible
SPECI ETSL 292035Z 19001KT 9999 SCT300 07/04 Q1027 BLU+FCST CANCEL

Get Severe Weather Alerts

Thanks for signing up!

Be on the lookout for a verification email in your inbox.

You'll start receiving the daily forecast at 8 AM.

×

10-Day Weather Forecast

×

Almanac

Astronomy

Mar. 29, 2017 Rise Set
Actual Time
Civil Twilight
Nautical Twilight
Astronomical Twilight
Moon
Length of Visible Light
Length of Day
Tomorrow will be .
, % of the Moon is Illuminated

Today's Extremes

Country Highs Country Lows

Community

WunderPhotos

Upload Photos

1,962,540 photos uploaded!

WunderBlog® & News

Nearby

Air Quality

  Air Quality AQ Index Pollutant
Not available.

Snow Depth

Station Depth Elevation

Earthquake Activity

City Distance Mag. Time & Date
Minimum magnitude displayed is 2.5.

Earthquake Activity

City Distance Mag. Time & Date
Minimum magnitude displayed is 2.5.

Coastal Water Temperatures

Place Temperature

Stations

Nearby Weather Stations

Station Location Temp. Windchill Dew Point Humidity Wind Precip. Elev Updated Type